Time;durP1;ratioP1;P1;durP2;ratioP2;P2;SDS_P1;SDS_P2;PMS_P1;PMS_P2;Temp;Humidity;BMP_temperature;BMP_pressure;BME280_temperature;BME280_humidity;BME280_pressure;Samples;Min_cycle;Max_cycle;Signal;HPM_P1;HPM_P2
2021/01/06 00:01:24;;;;;;;;;;;19.50;56.40;;;;;;5035420;28;1122;-67
2021/01/06 00:03:50;;;;;;;;;;;19.50;56.40;;;;;;5035498;28;1099;-67
2021/01/06 00:06:15;;;;;;;;;;;19.50;56.40;;;;;;5050711;28;1318;-67
2021/01/06 00:08:41;;;;;;;;;;;19.50;56.40;;;;;;5015673;28;1499;-67
2021/01/06 00:11:07;;;;;;;;;;;19.50;56.40;;;;;;5033304;28;1349;-67
2021/01/06 00:13:32;;;;;;;;;;;19.50;56.40;;;;;;5035600;28;1080;-67
2021/01/06 00:15:58;;;;;;;;;;;19.50;56.40;;;;;;5033073;28;1127;-67
2021/01/06 00:18:24;;;;;;;;;;;19.50;56.40;;;;;;5015413;28;1895;-67
2021/01/06 00:20:49;;;;;;;;;;;19.50;56.40;;;;;;5033277;28;1041;-67
2021/01/06 00:23:15;;;;;;;;;;;19.50;56.50;;;;;;5033119;28;1377;-67
2021/01/06 00:25:41;;;;;;;;;;;19.40;56.40;;;;;;5032517;28;960;-67
2021/01/06 00:28:06;;;;;;;;;;;19.40;56.40;;;;;;5032583;28;1328;-67
2021/01/06 00:30:39;;;;;;;;;;;19.40;56.40;;;;;;5015151;28;1265;-67
2021/01/06 00:33:05;;;;;;;;;;;19.40;56.40;;;;;;5032619;28;1293;-67
2021/01/06 00:35:30;;;;;;;;;;;19.40;56.40;;;;;;5032843;28;1074;-67
2021/01/06 00:37:57;;;;;;;;;;;19.40;56.40;;;;;;5032677;28;1898;-67
2021/01/06 00:40:28;;;;;;;;;;;19.40;56.50;;;;;;5032436;28;1037;-67
2021/01/06 00:42:54;;;;;;;;;;;19.40;56.50;;;;;;5015224;28;1144;-67
2021/01/06 00:45:20;;;;;;;;;;;19.40;56.50;;;;;;5032678;28;1044;-67
2021/01/06 00:47:45;;;;;;;;;;;19.40;56.50;;;;;;5015101;28;1295;-67
2021/01/06 00:50:11;;;;;;;;;;;19.40;56.50;;;;;;5032709;28;1087;-67
2021/01/06 00:52:36;;;;;;;;;;;19.40;56.60;;;;;;5039778;28;1080;-67
2021/01/06 00:55:02;;;;;;;;;;;19.40;56.50;;;;;;5031774;28;1057;-67
2021/01/06 00:57:27;;;;;;;;;;;19.40;56.50;;;;;;5037798;28;1910;-67
2021/01/06 00:59:53;;;;;;;;;;;19.40;56.50;;;;;;5038241;28;1061;-67
2021/01/06 01:02:18;;;;;;;;;;;19.40;56.50;;;;;;5032690;28;1136;-67
2021/01/06 01:04:44;;;;;;;;;;;19.40;56.60;;;;;;5032129;28;1089;-67
2021/01/06 01:07:10;;;;;;;;;;;19.40;56.60;;;;;;5032177;28;1299;-67
2021/01/06 01:09:35;;;;;;;;;;;19.40;56.60;;;;;;5031691;28;1305;-67
2021/01/06 01:12:02;;;;;;;;;;;19.40;56.60;;;;;;5032075;28;1404;-67
2021/01/06 01:14:27;;;;;;;;;;;19.40;56.60;;;;;;5035179;28;1041;-67
2021/01/06 01:16:53;;;;;;;;;;;19.40;56.60;;;;;;5031944;28;1260;-67
2021/01/06 01:19:19;;;;;;;;;;;19.40;56.60;;;;;;5032111;28;1919;-67
2021/01/06 01:21:44;;;;;;;;;;;19.40;56.60;;;;;;5014649;28;1560;-67
2021/01/06 01:24:09;;;;;;;;;;;19.40;56.60;;;;;;5014548;28;1069;-67
2021/01/06 01:26:35;;;;;;;;;;;19.40;56.60;;;;;;5013590;28;1416;-67
2021/01/06 01:29:00;;;;;;;;;;;19.40;56.70;;;;;;5031962;28;1064;-67
2021/01/06 01:31:32;;;;;;;;;;;19.40;56.70;;;;;;5032044;28;1077;-67
2021/01/06 01:33:58;;;;;;;;;;;19.40;56.70;;;;;;5030875;28;1340;-67
2021/01/06 01:36:24;;;;;;;;;;;19.40;56.70;;;;;;5031466;28;1252;-67
2021/01/06 01:38:50;;;;;;;;;;;19.40;56.70;;;;;;5031416;28;1902;-68
2021/01/06 01:41:18;;;;;;;;;;;19.40;56.70;;;;;;5031577;28;1068;-67
2021/01/06 01:43:44;;;;;;;;;;;19.40;57.30;;;;;;5013823;28;1488;-67
2021/01/06 01:46:20;;;;;;;;;;;19.30;56.70;;;;;;5031401;28;1246;-67
2021/01/06 01:48:49;;;;;;;;;;;19.30;56.70;;;;;;5014215;28;1148;-67
2021/01/06 01:51:20;;;;;;;;;;;19.30;56.70;;;;;;5016858;28;1183;-67
2021/01/06 01:53:47;;;;;;;;;;;19.30;56.70;;;;;;5033557;28;1115;-67
2021/01/06 01:56:12;;;;;;;;;;;19.30;56.70;;;;;;5030860;28;1194;-67
2021/01/06 01:58:38;;;;;;;;;;;19.30;56.70;;;;;;5025700;28;1970;-67
2021/01/06 02:01:04;;;;;;;;;;;19.30;56.70;;;;;;5013699;28;1092;-67
2021/01/06 02:03:29;;;;;;;;;;;19.30;56.70;;;;;;5030604;28;1042;-67
2021/01/06 02:06:01;;;;;;;;;;;19.30;56.70;;;;;;5030865;28;1397;-67
2021/01/06 02:08:45;;;;;;;;;;;19.30;56.70;;;;;;5013622;28;1065;-67
2021/01/06 02:11:15;;;;;;;;;;;19.30;56.70;;;;;;5031502;28;1049;-67
2021/01/06 02:14:05;;;;;;;;;;;19.30;56.70;;;;;;5015808;28;1028;-67
2021/01/06 02:16:37;;;;;;;;;;;19.30;56.80;;;;;;5020355;28;1327;-67
2021/01/06 02:19:03;;;;;;;;;;;19.30;56.80;;;;;;5013034;28;1902;-67
2021/01/06 02:21:29;;;;;;;;;;;19.30;56.80;;;;;;5013556;28;1069;-67
2021/01/06 02:23:55;;;;;;;;;;;19.30;56.80;;;;;;5030260;28;946;-67
2021/01/06 02:26:21;;;;;;;;;;;19.30;56.80;;;;;;5030317;28;1353;-67
2021/01/06 02:28:47;;;;;;;;;;;19.30;56.80;;;;;;5013395;28;1316;-67
2021/01/06 02:31:12;;;;;;;;;;;19.30;56.80;;;;;;5012918;28;1046;-67
2021/01/06 02:33:38;;;;;;;;;;;19.30;56.80;;;;;;4996695;28;1201;-67
2021/01/06 02:36:04;;;;;;;;;;;19.30;56.80;;;;;;5012759;28;1291;-67
2021/01/06 02:38:30;;;;;;;;;;;19.30;56.80;;;;;;5013150;28;1926;-67
2021/01/06 02:40:55;;;;;;;;;;;19.30;56.80;;;;;;5013264;28;1113;-67
2021/01/06 02:43:24;;;;;;;;;;;19.30;56.80;;;;;;5012734;28;1145;-67
2021/01/06 02:45:49;;;;;;;;;;;19.30;56.80;;;;;;5015193;28;1341;-67
2021/01/06 02:48:15;;;;;;;;;;;19.30;56.70;;;;;;5035081;28;1215;-67
2021/01/06 02:50:42;;;;;;;;;;;19.30;56.70;;;;;;5017045;28;1307;-67
2021/01/06 02:53:08;;;;;;;;;;;19.30;56.70;;;;;;5024402;28;1108;-67
2021/01/06 02:55:33;;;;;;;;;;;19.30;56.60;;;;;;5016085;28;1821;-67
2021/01/06 02:58:07;;;;;;;;;;;19.40;56.70;;;;;;5044464;28;1981;-67
2021/01/06 03:00:32;;;;;;;;;;;19.40;56.60;;;;;;5017689;28;1248;-67
2021/01/06 03:02:58;;;;;;;;;;;19.40;56.60;;;;;;5031069;28;1892;-67
2021/01/06 03:05:32;;;;;;;;;;;19.40;56.50;;;;;;5017611;28;1069;-67
2021/01/06 03:07:58;;;;;;;;;;;19.40;56.50;;;;;;5036554;28;1269;-67
2021/01/06 03:10:23;;;;;;;;;;;19.40;56.50;;;;;;5034761;28;1252;-67
2021/01/06 03:12:49;;;;;;;;;;;19.40;56.40;;;;;;5019772;28;1258;-67
2021/01/06 03:15:16;;;;;;;;;;;19.40;56.40;;;;;;5034355;28;1126;-67
2021/01/06 03:17:41;;;;;;;;;;;19.40;57.00;;;;;;5016021;28;1995;-67
2021/01/06 03:20:11;;;;;;;;;;;19.40;56.40;;;;;;5019307;28;1285;-66
2021/01/06 03:22:37;;;;;;;;;;;19.40;56.30;;;;;;5022043;28;1048;-67
2021/01/06 03:25:07;;;;;;;;;;;19.40;56.30;;;;;;5016336;28;1144;-67
2021/01/06 03:27:32;;;;;;;;;;;19.40;56.30;;;;;;5033319;28;1276;-67
2021/01/06 03:29:58;;;;;;;;;;;19.50;56.40;;;;;;5015628;28;1116;-67
2021/01/06 03:32:35;;;;;;;;;;;19.50;56.30;;;;;;5016461;28;1192;-67
2021/01/06 03:35:02;;;;;;;;;;;19.50;56.30;;;;;;5015845;28;1148;-67
2021/01/06 03:37:36;;;;;;;;;;;19.50;56.30;;;;;;5015745;28;1985;-67
2021/01/06 03:40:10;;;;;;;;;;;19.50;56.30;;;;;;5016429;28;1097;-67
2021/01/06 03:42:36;;;;;;;;;;;19.50;56.30;;;;;;5016246;28;1061;-67
2021/01/06 03:45:01;;;;;;;;;;;19.50;56.30;;;;;;5033732;28;985;-67
2021/01/06 03:47:27;;;;;;;;;;;19.50;56.30;;;;;;5015394;28;1283;-66
2021/01/06 03:49:59;;;;;;;;;;;19.50;56.30;;;;;;5016049;28;1117;-67
2021/01/06 03:52:30;;;;;;;;;;;19.50;56.30;;;;;;5033229;28;1078;-67
2021/01/06 03:55:00;;;;;;;;;;;19.50;56.30;;;;;;5033340;28;1071;-67
2021/01/06 03:57:26;;;;;;;;;;;19.50;56.30;;;;;;5022917;28;1914;-67
2021/01/06 03:59:51;;;;;;;;;;;19.50;56.30;;;;;;5022132;28;1123;-67
2021/01/06 04:02:17;;;;;;;;;;;19.50;56.30;;;;;;5016064;28;1324;-67
2021/01/06 04:04:42;;;;;;;;;;;19.50;56.30;;;;;;5033144;28;1129;-67
2021/01/06 04:07:16;;;;;;;;;;;19.50;56.20;;;;;;5032926;28;1292;-67
2021/01/06 04:09:47;;;;;;;;;;;19.50;56.20;;;;;;5016191;28;1128;-67
2021/01/06 04:12:13;;;;;;;;;;;19.50;56.20;;;;;;5011909;28;1409;-66
2021/01/06 04:14:39;;;;;;;;;;;19.50;56.20;;;;;;5027380;28;1352;-67
2021/01/06 04:17:17;;;;;;;;;;;19.50;56.20;;;;;;4988895;28;1318;-67
2021/01/06 04:19:44;;;;;;;;;;;19.50;56.20;;;;;;5025224;28;1952;-67
2021/01/06 04:22:09;;;;;;;;;;;19.50;56.20;;;;;;5006645;28;1305;-66
2021/01/06 04:24:35;;;;;;;;;;;19.50;56.20;;;;;;5023350;28;1337;-66
2021/01/06 04:27:00;;;;;;;;;;;19.50;56.20;;;;;;5023487;28;1309;-67
2021/01/06 04:29:26;;;;;;;;;;;19.50;56.20;;;;;;5024103;28;1273;-66
2021/01/06 04:31:51;;;;;;;;;;;19.50;56.20;;;;;;5006236;28;1385;-67
2021/01/06 04:34:17;;;;;;;;;;;19.50;56.20;;;;;;5005877;28;1492;-66
2021/01/06 04:36:42;;;;;;;;;;;19.50;56.20;;;;;;5005855;28;1297;-66
2021/01/06 04:39:08;;;;;;;;;;;19.50;56.20;;;;;;5006127;28;1959;-66
2021/01/06 04:41:40;;;;;;;;;;;19.50;56.20;;;;;;5023632;28;1298;-66
2021/01/06 04:44:09;;;;;;;;;;;19.50;56.20;;;;;;5009211;28;1431;-67
2021/01/06 04:46:53;;;;;;;;;;;19.50;56.20;;;;;;5033392;28;1395;-67
2021/01/06 04:49:39;;;;;;;;;;;19.50;56.20;;;;;;5034077;28;1406;-67
2021/01/06 04:52:14;;;;;;;;;;;19.50;56.20;;;;;;5032943;28;1461;-67
2021/01/06 04:54:45;;;;;;;;;;;19.50;56.20;;;;;;5015509;28;1451;-67
2021/01/06 04:57:13;;;;;;;;;;;19.50;56.20;;;;;;5019489;28;1432;-67
2021/01/06 04:59:39;;;;;;;;;;;19.50;56.20;;;;;;5024454;28;1906;-67
2021/01/06 05:02:23;;;;;;;;;;;19.50;56.20;;;;;;5033881;28;1690;-67
2021/01/06 05:05:07;;;;;;;;;;;19.50;56.20;;;;;;5033009;28;1387;-67
2021/01/06 05:07:51;;;;;;;;;;;19.50;56.20;;;;;;5032678;28;1413;-67
2021/01/06 05:10:28;;;;;;;;;;;19.50;56.20;;;;;;5033042;28;1296;-67
2021/01/06 05:12:55;;;;;;;;;;;19.60;56.20;;;;;;5019418;28;1420;-67
2021/01/06 05:15:28;;;;;;;;;;;19.50;56.20;;;;;;5015484;28;1337;-66
2021/01/06 05:17:54;;;;;;;;;;;19.50;56.10;;;;;;5015001;28;1977;-66
2021/01/06 05:20:19;;;;;;;;;;;19.50;56.20;;;;;;5015751;28;1424;-66
2021/01/06 05:22:45;;;;;;;;;;;19.50;56.20;;;;;;5033066;28;1383;-66
2021/01/06 05:25:12;;;;;;;;;;;19.50;56.20;;;;;;5033024;28;1413;-66
2021/01/06 05:27:38;;;;;;;;;;;19.50;56.20;;;;;;5014366;28;1248;-66
2021/01/06 05:30:22;;;;;;;;;;;19.50;56.20;;;;;;5032915;28;1713;-66
2021/01/06 05:32:47;;;;;;;;;;;19.50;56.20;;;;;;5033315;28;1700;-66
2021/01/06 05:35:14;;;;;;;;;;;19.50;56.20;;;;;;5032539;28;1665;-66
2021/01/06 05:37:40;;;;;;;;;;;19.60;56.20;;;;;;5032488;28;1898;-66
2021/01/06 05:40:06;;;;;;;;;;;19.50;56.10;;;;;;5015115;28;1729;-66
2021/01/06 05:42:33;;;;;;;;;;;19.50;56.10;;;;;;5015478;28;1768;-66
2021/01/06 05:44:58;;;;;;;;;;;19.50;56.10;;;;;;5014626;28;1707;-66
2021/01/06 05:47:34;;;;;;;;;;;19.50;56.10;;;;;;5032661;28;1348;-66
2021/01/06 05:50:15;;;;;;;;;;;19.50;56.20;;;;;;5015477;28;1738;-67
2021/01/06 05:52:40;;;;;;;;;;;19.50;56.10;;;;;;5003757;28;1680;-67
2021/01/06 05:55:06;;;;;;;;;;;19.60;56.20;;;;;;4998205;28;1706;-65
2021/01/06 05:57:41;;;;;;;;;;;19.50;56.10;;;;;;5033491;23;2630;-67
2021/01/06 06:00:11;;;;;;;;;;;19.60;56.10;;;;;;5041110;28;1491;-67
2021/01/06 06:02:36;;;;;;;;;;;19.60;56.20;;;;;;5051574;28;1653;-69
2021/01/06 06:05:05;;;;;;;;;;;19.50;56.10;;;;;;5052321;28;1692;-68
2021/01/06 06:07:41;;;;;;;;;;;19.50;56.10;;;;;;5052414;28;1388;-69
2021/01/06 06:10:19;;;;;;;;;;;19.50;56.10;;;;;;5051645;28;1399;-69
2021/01/06 06:12:44;;;;;;;;;;;19.50;56.10;;;;;;5051657;28;1402;-69
2021/01/06 06:15:24;;;;;;;;;;;19.60;56.10;;;;;;5052117;28;1365;-69
2021/01/06 06:18:08;;;;;;;;;;;19.60;56.10;;;;;;5050941;28;1972;-69
2021/01/06 06:20:36;;;;;;;;;;;19.60;56.10;;;;;;5050748;28;1708;-68
2021/01/06 06:23:20;;;;;;;;;;;19.60;56.20;;;;;;5051270;28;1679;-68
2021/01/06 06:25:51;;;;;;;;;;;19.60;56.10;;;;;;5052218;28;1675;-68
2021/01/06 06:28:21;;;;;;;;;;;19.60;56.10;;;;;;5051232;28;1707;-67
2021/01/06 06:30:54;;;;;;;;;;;19.60;56.10;;;;;;5050563;28;1509;-67
2021/01/06 06:33:29;;;;;;;;;;;19.60;56.10;;;;;;5051178;28;1618;-67
2021/01/06 06:35:55;;;;;;;;;;;19.60;56.10;;;;;;5050981;28;1705;-67
2021/01/06 06:38:32;;;;;;;;;;;19.60;56.10;;;;;;5051072;28;1964;-67
2021/01/06 06:41:04;;;;;;;;;;;19.60;56.10;;;;;;5050753;28;1369;-69
2021/01/06 06:43:32;;;;;;;;;;;19.60;56.10;;;;;;5051847;28;1150;-67
2021/01/06 06:46:02;;;;;;;;;;;19.60;56.10;;;;;;5051536;28;1430;-68
2021/01/06 06:48:35;;;;;;;;;;;19.60;56.10;;;;;;5051071;28;1438;-68
2021/01/06 06:51:10;;;;;;;;;;;19.60;56.10;;;;;;5043400;28;1552;-68
2021/01/06 06:53:54;;;;;;;;;;;19.60;56.10;;;;;;5031628;28;1656;-68
2021/01/06 06:56:31;;;;;;;;;;;19.60;56.10;;;;;;5031561;28;1013;-68
2021/01/06 06:59:08;;;;;;;;;;;19.60;56.10;;;;;;5043225;28;1902;-68
2021/01/06 07:01:38;;;;;;;;;;;19.60;56.10;;;;;;5011680;28;1716;-68
2021/01/06 07:04:06;;;;;;;;;;;19.60;56.10;;;;;;5031594;28;1407;-67
2021/01/06 07:06:32;;;;;;;;;;;19.60;56.10;;;;;;5032572;28;1281;-68
2021/01/06 07:08:58;;;;;;;;;;;19.60;56.10;;;;;;5051144;28;1699;-68
2021/01/06 07:11:39;;;;;;;;;;;19.60;56.10;;;;;;5050393;28;1662;-66
2021/01/06 07:14:05;;;;;;;;;;;19.60;56.10;;;;;;5040363;28;1525;-69
2021/01/06 07:16:31;;;;;;;;;;;19.60;56.10;;;;;;5031188;28;1647;-69
2021/01/06 07:19:04;;;;;;;;;;;19.60;56.10;;;;;;5030914;28;1914;-69
2021/01/06 07:21:33;;;;;;;;;;;19.60;56.10;;;;;;5031808;28;1386;-69
2021/01/06 07:23:58;;;;;;;;;;;19.60;56.10;;;;;;5030309;28;1700;-68
2021/01/06 07:26:25;;;;;;;;;;;19.60;56.10;;;;;;5024939;28;2003;-67
2021/01/06 07:29:03;;;;;;;;;;;19.60;56.10;;;;;;5035661;28;2037;-66
2021/01/06 07:31:30;;;;;;;;;;;19.60;56.10;;;;;;5038695;28;1670;-67
2021/01/06 07:33:56;;;;;;;;;;;19.60;56.10;;;;;;5046517;28;864;-66
2021/01/06 07:36:23;;;;;;;;;;;19.60;56.10;;;;;;5054160;28;1414;-66
2021/01/06 07:38:48;;;;;;;;;;;19.60;56.10;;;;;;5053554;28;1902;-66
2021/01/06 07:41:14;;;;;;;;;;;19.60;56.10;;;;;;5039761;28;1186;-66
2021/01/06 07:43:44;;;;;;;;;;;19.60;56.10;;;;;;5039641;28;1202;-66
2021/01/06 07:46:12;;;;;;;;;;;19.60;56.10;;;;;;5042973;28;1732;-66
2021/01/06 07:48:44;;;;;;;;;;;19.60;56.10;;;;;;5052708;28;1726;-65
2021/01/06 07:51:30;;;;;;;;;;;19.60;56.10;;;;;;5060486;28;1284;-67
2021/01/06 07:54:08;;;;;;;;;;;19.60;56.10;;;;;;5033149;28;1433;-68
2021/01/06 07:56:39;;;;;;;;;;;19.60;56.10;;;;;;5033888;28;1492;-70
2021/01/06 07:59:10;;;;;;;;;;;19.60;56.10;;;;;;5044251;28;1963;-70
2021/01/06 08:01:44;;;;;;;;;;;19.60;56.10;;;;;;5033266;28;1520;-70
2021/01/06 08:04:10;;;;;;;;;;;19.60;56.10;;;;;;5041542;28;1401;-70
2021/01/06 08:06:51;;;;;;;;;;;19.60;56.10;;;;;;5053868;28;1411;-70
2021/01/06 08:09:29;;;;;;;;;;;19.60;56.10;;;;;;5053401;28;1395;-70
2021/01/06 08:11:54;;;;;;;;;;;19.60;56.10;;;;;;5052251;28;1734;-70
2021/01/06 08:14:25;;;;;;;;;;;19.60;56.10;;;;;;5033653;28;3097;-70
2021/01/06 08:16:52;;;;;;;;;;;19.60;56.60;;;;;;5020880;28;1468;-69
2021/01/06 08:19:21;;;;;;;;;;;19.60;56.10;;;;;;5033417;28;1963;-69
2021/01/06 08:22:05;;;;;;;;;;;19.60;56.10;;;;;;5033479;28;1619;-70
2021/01/06 08:24:31;;;;;;;;;;;19.60;56.10;;;;;;5030143;28;1695;-69
2021/01/06 08:27:00;;;;;;;;;;;19.60;56.10;;;;;;5034263;28;1619;-70
2021/01/06 08:29:26;;;;;;;;;;;19.60;56.10;;;;;;5034260;28;1440;-69
2021/01/06 08:31:59;;;;;;;;;;;19.60;56.10;;;;;;5034309;28;1675;-70
2021/01/06 08:34:27;;;;;;;;;;;19.60;56.10;;;;;;5032628;28;1730;-70
2021/01/06 08:37:02;;;;;;;;;;;19.60;56.10;;;;;;5034055;28;1667;-69
2021/01/06 08:39:28;;;;;;;;;;;19.60;56.10;;;;;;5032726;28;1957;-69
2021/01/06 08:41:55;;;;;;;;;;;19.60;56.10;;;;;;5032769;28;1206;-69
2021/01/06 08:44:26;;;;;;;;;;;19.60;56.00;;;;;;5032452;28;1412;-70
2021/01/06 08:46:58;;;;;;;;;;;19.60;56.00;;;;;;5033559;28;1876;-69
2021/01/06 08:49:25;;;;;;;;;;;19.50;56.00;;;;;;5032723;28;1600;-70
2021/01/06 08:51:51;;;;;;;;;;;19.60;56.00;;;;;;5033603;28;1564;-70
2021/01/06 08:54:20;;;;;;;;;;;19.60;56.10;;;;;;5052369;28;1757;-70
2021/01/06 08:56:45;;;;;;;;;;;19.60;56.00;;;;;;5052485;28;1677;-70
2021/01/06 08:59:24;;;;;;;;;;;19.60;56.10;;;;;;5061292;28;1910;-70
2021/01/06 09:01:50;;;;;;;;;;;19.60;56.60;;;;;;5052133;28;1579;-70
2021/01/06 09:04:41;;;;;;;;;;;19.60;56.00;;;;;;5068562;28;1022;-69
2021/01/06 09:07:24;;;;;;;;;;;19.60;56.00;;;;;;5049767;28;1707;-69
2021/01/06 09:10:04;;;;;;;;;;;19.60;56.00;;;;;;5050947;28;1633;-68
2021/01/06 09:12:36;;;;;;;;;;;19.60;56.00;;;;;;5024843;28;1753;-69
2021/01/06 09:15:01;;;;;;;;;;;19.60;56.00;;;;;;5034431;28;1631;-68
2021/01/06 09:17:36;;;;;;;;;;;19.60;56.00;;;;;;5031802;28;1603;-68
2021/01/06 09:20:04;;;;;;;;;;;19.60;56.00;;;;;;5037351;28;1041;-69
2021/01/06 09:22:30;;;;;;;;;;;19.60;56.00;;;;;;5030075;28;1378;-69
2021/01/06 09:24:55;;;;;;;;;;;19.60;56.00;;;;;;5041296;28;1708;-68
2021/01/06 09:27:24;;;;;;;;;;;19.60;56.00;;;;;;5028075;28;1441;-69
2021/01/06 09:29:49;;;;;;;;;;;19.60;56.00;;;;;;5029329;28;1451;-69
2021/01/06 09:32:17;;;;;;;;;;;19.60;56.00;;;;;;5037573;28;1313;-69
2021/01/06 09:34:44;;;;;;;;;;;19.60;56.00;;;;;;5041017;28;1576;-69
2021/01/06 09:37:23;;;;;;;;;;;19.60;56.00;;;;;;5047815;28;1633;-69
2021/01/06 09:39:48;;;;;;;;;;;19.60;56.50;;;;;;5050880;28;1971;-69
2021/01/06 09:42:14;;;;;;;;;;;19.60;55.90;;;;;;5037583;28;1075;-69
2021/01/06 09:44:39;;;;;;;;;;;19.60;55.90;;;;;;5052263;28;1138;-69
2021/01/06 09:47:13;;;;;;;;;;;19.60;55.90;;;;;;5052374;28;1315;-69
2021/01/06 09:49:40;;;;;;;;;;;19.60;56.00;;;;;;5042110;28;1100;-68
2021/01/06 09:52:06;;;;;;;;;;;19.60;55.90;;;;;;5037719;28;1365;-69
2021/01/06 09:54:32;;;;;;;;;;;19.60;56.00;;;;;;5030702;28;1284;-69
2021/01/06 09:56:57;;;;;;;;;;;19.60;56.00;;;;;;5018819;28;1571;-70
2021/01/06 09:59:23;;;;;;;;;;;19.60;55.90;;;;;;5025452;28;2358;-69
2021/01/06 10:01:52;;;;;;;;;;;19.60;56.00;;;;;;5022618;28;1230;-70
2021/01/06 10:04:25;;;;;;;;;;;19.70;55.90;;;;;;5030944;28;1235;-70
2021/01/06 10:07:10;;;;;;;;;;;19.60;55.90;;;;;;5037742;28;1865;-68
2021/01/06 10:09:38;;;;;;;;;;;19.60;55.90;;;;;;5002819;28;1255;-70
2021/01/06 10:12:03;;;;;;;;;;;19.60;56.10;;;;;;5021150;28;1238;-70
2021/01/06 10:14:35;;;;;;;;;;;19.70;56.00;;;;;;5023246;28;1194;-68
2021/01/06 10:17:05;;;;;;;;;;;19.60;55.90;;;;;;5022370;28;1386;-68
2021/01/06 10:19:39;;;;;;;;;;;19.70;55.90;;;;;;5024987;28;1934;-68
2021/01/06 10:22:14;;;;;;;;;;;19.70;55.80;;;;;;5030968;28;1910;-69
2021/01/06 10:24:39;;;;;;;;;;;19.80;55.70;;;;;;5028558;28;1271;-68
2021/01/06 10:27:18;;;;;;;;;;;19.90;55.60;;;;;;5039560;28;1275;-68
2021/01/06 10:29:45;;;;;;;;;;;20.00;55.40;;;;;;5046866;28;1264;-69
2021/01/06 10:32:11;;;;;;;;;;;20.10;55.10;;;;;;5031188;28;1489;-68
2021/01/06 10:34:41;;;;;;;;;;;20.30;55.00;;;;;;5021587;28;1206;-69
2021/01/06 10:37:22;;;;;;;;;;;20.40;54.70;;;;;;5040256;28;1276;-69
2021/01/06 10:39:52;;;;;;;;;;;20.40;54.40;;;;;;5026388;28;1890;-69
2021/01/06 10:42:20;;;;;;;;;;;20.50;54.20;;;;;;5030064;28;1327;-66
2021/01/06 10:44:50;;;;;;;;;;;20.60;54.00;;;;;;5050181;28;1345;-67
2021/01/06 10:47:25;;;;;;;;;;;20.70;53.80;;;;;;5041112;28;2050;-68
2021/01/06 10:49:52;;;;;;;;;;;20.80;53.70;;;;;;5019121;28;1932;-67
2021/01/06 10:52:19;;;;;;;;;;;20.90;53.50;;;;;;5016184;28;1216;-67
2021/01/06 10:54:52;;;;;;;;;;;20.90;53.40;;;;;;5029081;28;1357;-68
2021/01/06 10:57:18;;;;;;;;;;;21.00;53.20;;;;;;5047154;28;1619;-68
2021/01/06 11:00:01;;;;;;;;;;;21.00;53.10;;;;;;5037779;28;1988;-68
2021/01/06 11:02:37;;;;;;;;;;;21.00;53.00;;;;;;5030211;28;1151;-67
2021/01/06 11:05:22;;;;;;;;;;;21.10;53.00;;;;;;5010831;28;1599;-67
2021/01/06 11:08:07;;;;;;;;;;;21.10;52.90;;;;;;5032856;28;1666;-67
2021/01/06 11:10:51;;;;;;;;;;;21.20;52.90;;;;;;5033594;28;1452;-68
2021/01/06 11:13:35;;;;;;;;;;;21.20;52.80;;;;;;5036604;28;1332;-67
2021/01/06 11:16:11;;;;;;;;;;;21.20;52.70;;;;;;5043535;28;1767;-68
2021/01/06 11:18:38;;;;;;;;;;;21.30;52.70;;;;;;5036289;28;1894;-67
2021/01/06 11:21:10;;;;;;;;;;;21.30;52.60;;;;;;5041566;28;1632;-67
2021/01/06 11:23:49;;;;;;;;;;;21.30;52.60;;;;;;5052318;28;1611;-67
2021/01/06 11:26:21;;;;;;;;;;;21.40;52.60;;;;;;5032550;28;1468;-67
2021/01/06 11:29:01;;;;;;;;;;;21.40;52.50;;;;;;5033160;28;1536;-67
2021/01/06 11:31:27;;;;;;;;;;;21.40;52.50;;;;;;5032412;28;1047;-67
2021/01/06 11:34:21;;;;;;;;;;;21.40;52.40;;;;;;5029766;28;1622;-67
2021/01/06 11:36:53;;;;;;;;;;;21.50;52.40;;;;;;5022710;28;1554;-67
2021/01/06 11:39:28;;;;;;;;;;;21.50;52.40;;;;;;5032144;28;1954;-67
2021/01/06 11:41:55;;;;;;;;;;;21.50;52.30;;;;;;5032043;28;1941;-67
2021/01/06 11:44:36;;;;;;;;;;;21.50;52.30;;;;;;5023333;28;965;-67
2021/01/06 11:47:26;;;;;;;;;;;21.50;52.30;;;;;;5044090;28;1314;-67
2021/01/06 11:49:52;;;;;;;;;;;21.50;52.30;;;;;;5051659;28;1311;-67
2021/01/06 11:52:41;;;;;;;;;;;21.60;52.30;;;;;;5033034;28;1182;-67
2021/01/06 11:55:13;;;;;;;;;;;21.60;52.30;;;;;;5029086;28;1136;-67
2021/01/06 11:57:38;;;;;;;;;;;21.60;52.30;;;;;;5039251;28;1914;-67
2021/01/06 12:00:22;;;;;;;;;;;21.60;52.20;;;;;;5037259;28;1294;-68
2021/01/06 12:02:59;;;;;;;;;;;21.60;52.20;;;;;;5030951;28;1379;-67
2021/01/06 12:05:24;;;;;;;;;;;21.60;52.20;;;;;;5046970;28;1316;-68
2021/01/06 12:07:50;;;;;;;;;;;21.60;52.10;;;;;;5032489;28;1362;-68
2021/01/06 12:10:29;;;;;;;;;;;21.70;52.20;;;;;;5032020;28;1224;-69
2021/01/06 12:13:30;;;;;;;;;;;21.70;52.20;;;;;;5032212;28;1172;-68
2021/01/06 12:16:06;;;;;;;;;;;21.70;52.10;;;;;;4999777;28;1371;-69
2021/01/06 12:18:56;;;;;;;;;;;21.70;52.20;;;;;;5037380;28;1959;-69
2021/01/06 12:21:25;;;;;;;;;;;21.70;52.20;;;;;;5051863;28;1210;-68
2021/01/06 12:23:50;;;;;;;;;;;21.70;52.20;;;;;;5050449;28;1286;-68
2021/01/06 12:26:55;;;;;;;;;;;21.60;52.20;;;;;;5057190;22;3501;-68
2021/01/06 12:29:21;;;;;;;;;;;21.60;52.20;;;;;;4982824;28;1277;-68
2021/01/06 12:31:47;;;;;;;;;;;21.60;52.30;;;;;;4969420;28;2019;-69
2021/01/06 12:34:13;;;;;;;;;;;21.60;52.30;;;;;;5021000;28;1548;-70
2021/01/06 12:36:57;;;;;;;;;;;21.60;52.30;;;;;;5042372;28;1889;-70
2021/01/06 12:39:25;;;;;;;;;;;21.60;52.40;;;;;;5032429;28;1918;-70
2021/01/06 12:41:51;;;;;;;;;;;21.60;52.40;;;;;;5031802;28;1184;-70
2021/01/06 12:44:18;;;;;;;;;;;21.60;52.50;;;;;;5031311;28;1415;-69
2021/01/06 12:46:45;;;;;;;;;;;21.50;52.50;;;;;;5031390;28;1488;-70
2021/01/06 12:49:10;;;;;;;;;;;21.50;52.50;;;;;;5034610;28;1387;-70
2021/01/06 12:51:43;;;;;;;;;;;21.50;52.60;;;;;;5033321;28;1360;-70
2021/01/06 12:54:13;;;;;;;;;;;21.50;52.60;;;;;;5015218;28;1713;-70
2021/01/06 12:56:40;;;;;;;;;;;21.40;52.70;;;;;;5031290;28;1488;-68
2021/01/06 12:59:05;;;;;;;;;;;21.40;52.70;;;;;;5043559;28;1902;-69
2021/01/06 13:01:33;;;;;;;;;;;21.40;52.80;;;;;;5032737;28;1322;-69
2021/01/06 13:04:01;;;;;;;;;;;21.40;52.80;;;;;;5032380;28;1147;-69
2021/01/06 13:06:45;;;;;;;;;;;21.40;52.90;;;;;;5030658;28;1420;-69
2021/01/06 13:09:11;;;;;;;;;;;21.30;52.90;;;;;;5032130;28;1372;-69
2021/01/06 13:11:36;;;;;;;;;;;21.30;53.00;;;;;;5048823;28;1393;-69
2021/01/06 13:14:13;;;;;;;;;;;21.30;53.00;;;;;;5041236;28;1363;-69
2021/01/06 13:16:41;;;;;;;;;;;21.30;53.70;;;;;;5028370;28;1644;-69
2021/01/06 13:19:09;;;;;;;;;;;21.30;53.20;;;;;;5013653;28;1926;-68
2021/01/06 13:21:36;;;;;;;;;;;21.20;53.20;;;;;;5031839;28;1581;-68
2021/01/06 13:24:14;;;;;;;;;;;21.20;53.20;;;;;;5025844;28;1513;-67
2021/01/06 13:26:42;;;;;;;;;;;21.20;53.30;;;;;;5040320;28;1404;-67
2021/01/06 13:29:09;;;;;;;;;;;21.20;53.30;;;;;;5029752;28;1614;-69
2021/01/06 13:31:42;;;;;;;;;;;21.10;53.30;;;;;;5013031;28;1366;-68
2021/01/06 13:34:13;;;;;;;;;;;21.10;53.40;;;;;;5030660;28;1359;-68
2021/01/06 13:36:59;;;;;;;;;;;21.10;53.40;;;;;;5029521;28;1420;-68
2021/01/06 13:39:31;;;;;;;;;;;21.10;53.50;;;;;;5030491;28;1910;-68
2021/01/06 13:41:57;;;;;;;;;;;21.10;53.50;;;;;;5030814;28;1637;-68
2021/01/06 13:44:31;;;;;;;;;;;21.10;53.50;;;;;;5031700;28;1281;-68
2021/01/06 13:47:05;;;;;;;;;;;21.00;53.50;;;;;;5050722;28;1609;-68
2021/01/06 13:49:34;;;;;;;;;;;21.00;53.60;;;;;;5048069;28;1650;-69
2021/01/06 13:52:19;;;;;;;;;;;21.00;53.60;;;;;;5031366;28;1555;-68
2021/01/06 13:54:50;;;;;;;;;;;21.00;53.70;;;;;;5042214;28;1623;-68
2021/01/06 13:57:34;;;;;;;;;;;21.00;53.70;;;;;;5051519;28;1669;-67
2021/01/06 14:00:03;;;;;;;;;;;21.00;53.70;;;;;;5044620;28;1956;-67
2021/01/06 14:02:30;;;;;;;;;;;20.90;53.80;;;;;;5051054;28;1649;-67
2021/01/06 14:04:57;;;;;;;;;;;20.90;53.80;;;;;;5049482;28;1617;-67
2021/01/06 14:07:26;;;;;;;;;;;20.90;53.80;;;;;;5050110;28;1397;-67
2021/01/06 14:10:09;;;;;;;;;;;20.90;53.90;;;;;;5051258;28;1367;-67
2021/01/06 14:12:38;;;;;;;;;;;20.90;53.90;;;;;;5051105;28;1205;-67
2021/01/06 14:15:09;;;;;;;;;;;20.90;54.00;;;;;;5036990;28;1293;-67
2021/01/06 14:17:39;;;;;;;;;;;20.90;54.60;;;;;;5050368;28;1614;-68
2021/01/06 14:20:16;;;;;;;;;;;20.80;54.00;;;;;;5050447;28;1965;-67
2021/01/06 14:22:45;;;;;;;;;;;20.80;54.10;;;;;;5045417;28;1366;-68
2021/01/06 14:25:23;;;;;;;;;;;20.80;54.10;;;;;;5049264;28;1746;-67
2021/01/06 14:27:48;;;;;;;;;;;20.80;54.20;;;;;;5032880;28;1782;-67
2021/01/06 14:30:22;;;;;;;;;;;20.70;54.20;;;;;;5030570;28;1691;-67
2021/01/06 14:33:23;;;;;;;;;;;20.70;54.20;;;;;;5030768;28;1349;-68
2021/01/06 14:35:53;;;;;;;;;;;20.70;54.30;;;;;;4968931;28;1501;-68
2021/01/06 14:38:26;;;;;;;;;;;20.70;54.40;;;;;;5018348;28;1914;-68
2021/01/06 14:41:08;;;;;;;;;;;20.70;54.40;;;;;;5032602;28;1623;-68
2021/01/06 14:43:54;;;;;;;;;;;20.70;54.40;;;;;;5032996;28;1608;-68
2021/01/06 14:46:38;;;;;;;;;;;20.60;54.40;;;;;;5023401;28;1351;-68
2021/01/06 14:49:09;;;;;;;;;;;20.60;54.40;;;;;;5053378;28;1654;-67
2021/01/06 14:51:59;;;;;;;;;;;20.60;54.50;;;;;;5041282;28;1694;-68